sensor_id;sensor_type;location;lat;lon;timestamp;P1;durP1;ratioP1;P2;durP2;ratioP2
23222;SDS011;11780;13.904;100.620;2023-05-13T00:00:27;16.65;;;12.13;;
23222;SDS011;11780;13.904;100.620;2023-05-13T00:03:08;17.02;;;13.82;;
23222;SDS011;11780;13.904;100.620;2023-05-13T00:05:38;18.30;;;12.07;;
23222;SDS011;11780;13.904;100.620;2023-05-13T00:08:09;17.10;;;12.60;;
23222;SDS011;11780;13.904;100.620;2023-05-13T00:10:40;18.77;;;13.35;;
23222;SDS011;11780;13.904;100.620;2023-05-13T00:13:10;18.55;;;12.43;;
23222;SDS011;11780;13.904;100.620;2023-05-13T00:15:40;14.73;;;11.85;;
23222;SDS011;11780;13.904;100.620;2023-05-13T00:18:11;15.73;;;13.00;;
23222;SDS011;11780;13.904;100.620;2023-05-13T00:20:41;14.40;;;12.00;;
23222;SDS011;11780;13.904;100.620;2023-05-13T00:23:11;16.55;;;13.00;;
23222;SDS011;11780;13.904;100.620;2023-05-13T00:25:42;15.48;;;12.07;;
23222;SDS011;11780;13.904;100.620;2023-05-13T00:28:13;13.93;;;11.23;;
23222;SDS011;11780;13.904;100.620;2023-05-13T00:30:43;17.03;;;12.47;;
23222;SDS011;11780;13.904;100.620;2023-05-13T00:33:15;16.73;;;11.65;;
23222;SDS011;11780;13.904;100.620;2023-05-13T00:35:46;13.95;;;12.32;;
23222;SDS011;11780;13.904;100.620;2023-05-13T00:38:17;12.93;;;11.13;;
23222;SDS011;11780;13.904;100.620;2023-05-13T00:40:48;21.23;;;11.10;;
23222;SDS011;11780;13.904;100.620;2023-05-13T00:43:19;15.57;;;11.95;;
23222;SDS011;11780;13.904;100.620;2023-05-13T00:45:50;13.07;;;11.68;;
23222;SDS011;11780;13.904;100.620;2023-05-13T00:48:23;14.43;;;11.40;;
23222;SDS011;11780;13.904;100.620;2023-05-13T00:50:55;13.32;;;11.95;;
23222;SDS011;11780;13.904;100.620;2023-05-13T00:53:25;14.75;;;11.25;;
23222;SDS011;11780;13.904;100.620;2023-05-13T00:55:56;12.83;;;11.30;;
23222;SDS011;11780;13.904;100.620;2023-05-13T00:58:26;14.10;;;11.60;;
23222;SDS011;11780;13.904;100.620;2023-05-13T01:01:14;15.75;;;11.77;;
23222;SDS011;11780;13.904;100.620;2023-05-13T01:12:04;16.52;;;11.90;;
23222;SDS011;11780;13.904;100.620;2023-05-13T01:14:39;14.43;;;12.43;;
23222;SDS011;11780;13.904;100.620;2023-05-13T01:17:20;14.23;;;11.65;;
23222;SDS011;11780;13.904;100.620;2023-05-13T01:19:58;14.88;;;12.90;;
23222;SDS011;11780;13.904;100.620;2023-05-13T01:22:32;19.70;;;13.52;;
23222;SDS011;11780;13.904;100.620;2023-05-13T01:25:03;20.73;;;12.75;;
23222;SDS011;11780;13.904;100.620;2023-05-13T01:27:34;15.63;;;12.38;;
23222;SDS011;11780;13.904;100.620;2023-05-13T01:30:04;20.80;;;13.40;;
23222;SDS011;11780;13.904;100.620;2023-05-13T01:32:36;13.82;;;12.43;;
23222;SDS011;11780;13.904;100.620;2023-05-13T01:35:07;17.67;;;12.82;;
23222;SDS011;11780;13.904;100.620;2023-05-13T01:37:43;14.90;;;11.77;;
23222;SDS011;11780;13.904;100.620;2023-05-13T01:40:13;15.83;;;14.10;;
23222;SDS011;11780;13.904;100.620;2023-05-13T01:43:04;18.35;;;12.88;;
23222;SDS011;11780;13.904;100.620;2023-05-13T01:45:35;18.25;;;13.45;;
23222;SDS011;11780;13.904;100.620;2023-05-13T01:48:06;17.70;;;13.15;;
23222;SDS011;11780;13.904;100.620;2023-05-13T01:50:46;18.65;;;14.77;;
23222;SDS011;11780;13.904;100.620;2023-05-13T01:53:17;16.67;;;14.93;;
23222;SDS011;11780;13.904;100.620;2023-05-13T01:55:51;17.95;;;13.35;;
23222;SDS011;11780;13.904;100.620;2023-05-13T01:58:21;15.37;;;13.53;;
23222;SDS011;11780;13.904;100.620;2023-05-13T02:03:22;18.27;;;15.50;;
23222;SDS011;11780;13.904;100.620;2023-05-13T02:05:53;23.17;;;16.53;;
23222;SDS011;11780;13.904;100.620;2023-05-13T02:08:24;20.63;;;15.60;;
23222;SDS011;11780;13.904;100.620;2023-05-13T02:10:56;17.55;;;14.05;;
23222;SDS011;11780;13.904;100.620;2023-05-13T02:13:28;16.60;;;12.95;;
23222;SDS011;11780;13.904;100.620;2023-05-13T02:15:58;15.18;;;13.68;;
23222;SDS011;11780;13.904;100.620;2023-05-13T02:18:28;15.05;;;12.82;;
23222;SDS011;11780;13.904;100.620;2023-05-13T02:20:58;14.07;;;12.67;;
23222;SDS011;11780;13.904;100.620;2023-05-13T02:23:28;16.90;;;14.75;;
23222;SDS011;11780;13.904;100.620;2023-05-13T02:26:00;17.83;;;15.68;;
23222;SDS011;11780;13.904;100.620;2023-05-13T02:28:31;17.73;;;13.97;;
23222;SDS011;11780;13.904;100.620;2023-05-13T02:31:01;14.90;;;13.40;;
23222;SDS011;11780;13.904;100.620;2023-05-13T02:33:31;18.73;;;13.52;;
23222;SDS011;11780;13.904;100.620;2023-05-13T02:36:02;16.77;;;12.40;;
23222;SDS011;11780;13.904;100.620;2023-05-13T02:38:32;15.13;;;12.73;;
23222;SDS011;11780;13.904;100.620;2023-05-13T02:41:05;14.85;;;12.25;;
23222;SDS011;11780;13.904;100.620;2023-05-13T02:43:36;15.60;;;12.00;;
23222;SDS011;11780;13.904;100.620;2023-05-13T02:46:07;15.07;;;11.17;;
23222;SDS011;11780;13.904;100.620;2023-05-13T02:48:37;15.23;;;10.55;;
23222;SDS011;11780;13.904;100.620;2023-05-13T02:51:07;14.27;;;10.63;;
23222;SDS011;11780;13.904;100.620;2023-05-13T02:53:38;17.63;;;11.45;;
23222;SDS011;11780;13.904;100.620;2023-05-13T02:56:08;17.50;;;9.73;;
23222;SDS011;11780;13.904;100.620;2023-05-13T02:58:38;14.15;;;10.65;;
23222;SDS011;11780;13.904;100.620;2023-05-13T03:01:09;14.02;;;10.30;;
23222;SDS011;11780;13.904;100.620;2023-05-13T03:03:40;13.03;;;9.67;;
23222;SDS011;11780;13.904;100.620;2023-05-13T03:06:10;13.27;;;10.52;;
23222;SDS011;11780;13.904;100.620;2023-05-13T03:08:41;12.20;;;10.87;;
23222;SDS011;11780;13.904;100.620;2023-05-13T03:11:11;15.07;;;10.75;;
23222;SDS011;11780;13.904;100.620;2023-05-13T03:13:41;15.15;;;10.48;;
23222;SDS011;11780;13.904;100.620;2023-05-13T03:16:12;12.48;;;10.15;;
23222;SDS011;11780;13.904;100.620;2023-05-13T03:18:43;16.57;;;11.30;;
23222;SDS011;11780;13.904;100.620;2023-05-13T03:21:16;14.98;;;10.02;;
23222;SDS011;11780;13.904;100.620;2023-05-13T03:23:47;14.48;;;11.07;;
23222;SDS011;11780;13.904;100.620;2023-05-13T03:26:19;12.50;;;9.57;;
23222;SDS011;11780;13.904;100.620;2023-05-13T03:28:50;14.40;;;9.55;;
23222;SDS011;11780;13.904;100.620;2023-05-13T03:31:20;14.10;;;9.77;;
23222;SDS011;11780;13.904;100.620;2023-05-13T03:33:51;12.73;;;9.57;;
23222;SDS011;11780;13.904;100.620;2023-05-13T03:36:23;16.65;;;9.40;;
23222;SDS011;11780;13.904;100.620;2023-05-13T03:38:54;9.48;;;8.20;;
23222;SDS011;11780;13.904;100.620;2023-05-13T03:41:25;11.18;;;8.77;;
23222;SDS011;11780;13.904;100.620;2023-05-13T03:43:58;14.88;;;9.32;;
23222;SDS011;11780;13.904;100.620;2023-05-13T03:46:28;11.23;;;7.80;;
23222;SDS011;11780;13.904;100.620;2023-05-13T03:48:59;14.37;;;9.53;;
23222;SDS011;11780;13.904;100.620;2023-05-13T03:51:29;15.70;;;8.50;;
23222;SDS011;11780;13.904;100.620;2023-05-13T03:54:01;12.25;;;7.97;;
23222;SDS011;11780;13.904;100.620;2023-05-13T03:56:31;12.43;;;8.30;;
23222;SDS011;11780;13.904;100.620;2023-05-13T03:59:01;13.07;;;8.80;;
23222;SDS011;11780;13.904;100.620;2023-05-13T04:01:34;11.75;;;7.18;;
23222;SDS011;11780;13.904;100.620;2023-05-13T04:04:04;9.90;;;7.47;;
23222;SDS011;11780;13.904;100.620;2023-05-13T04:06:35;11.30;;;8.80;;
23222;SDS011;11780;13.904;100.620;2023-05-13T04:09:05;14.30;;;8.27;;
23222;SDS011;11780;13.904;100.620;2023-05-13T04:11:35;10.43;;;8.03;;
23222;SDS011;11780;13.904;100.620;2023-05-13T04:14:05;11.55;;;8.07;;
23222;SDS011;11780;13.904;100.620;2023-05-13T04:16:36;15.05;;;8.95;;
23222;SDS011;11780;13.904;100.620;2023-05-13T04:19:07;14.65;;;8.68;;
23222;SDS011;11780;13.904;100.620;2023-05-13T04:21:37;12.13;;;8.17;;
23222;SDS011;11780;13.904;100.620;2023-05-13T04:24:07;13.05;;;8.85;;
23222;SDS011;11780;13.904;100.620;2023-05-13T04:26:37;14.63;;;8.27;;
23222;SDS011;11780;13.904;100.620;2023-05-13T04:29:09;14.48;;;8.85;;
23222;SDS011;11780;13.904;100.620;2023-05-13T04:34:12;15.27;;;8.73;;
23222;SDS011;11780;13.904;100.620;2023-05-13T04:36:43;12.88;;;8.75;;
23222;SDS011;11780;13.904;100.620;2023-05-13T04:39:14;12.13;;;9.02;;
23222;SDS011;11780;13.904;100.620;2023-05-13T04:41:45;10.07;;;8.90;;
23222;SDS011;11780;13.904;100.620;2023-05-13T04:44:15;9.65;;;8.45;;
23222;SDS011;11780;13.904;100.620;2023-05-13T04:46:46;15.05;;;9.20;;
23222;SDS011;11780;13.904;100.620;2023-05-13T04:49:16;13.35;;;9.35;;
23222;SDS011;11780;13.904;100.620;2023-05-13T04:51:47;11.93;;;8.52;;
23222;SDS011;11780;13.904;100.620;2023-05-13T04:54:18;15.10;;;8.75;;
23222;SDS011;11780;13.904;100.620;2023-05-13T04:56:49;13.10;;;8.97;;
23222;SDS011;11780;13.904;100.620;2023-05-13T04:59:20;11.50;;;9.27;;
23222;SDS011;11780;13.904;100.620;2023-05-13T05:01:51;12.98;;;8.55;;
23222;SDS011;11780;13.904;100.620;2023-05-13T05:04:21;15.50;;;8.93;;
23222;SDS011;11780;13.904;100.620;2023-05-13T05:06:52;11.17;;;9.37;;
23222;SDS011;11780;13.904;100.620;2023-05-13T05:09:22;11.27;;;8.55;;
23222;SDS011;11780;13.904;100.620;2023-05-13T05:11:53;11.30;;;8.80;;
23222;SDS011;11780;13.904;100.620;2023-05-13T05:14:26;15.48;;;9.80;;
23222;SDS011;11780;13.904;100.620;2023-05-13T05:16:56;10.30;;;9.20;;
23222;SDS011;11780;13.904;100.620;2023-05-13T05:19:28;10.93;;;8.25;;
23222;SDS011;11780;13.904;100.620;2023-05-13T05:21:58;8.53;;;7.73;;
23222;SDS011;11780;13.904;100.620;2023-05-13T05:24:29;9.47;;;8.30;;
23222;SDS011;11780;13.904;100.620;2023-05-13T05:26:59;9.30;;;8.33;;
23222;SDS011;11780;13.904;100.620;2023-05-13T05:29:31;9.93;;;8.18;;
23222;SDS011;11780;13.904;100.620;2023-05-13T05:32:01;11.00;;;9.18;;
23222;SDS011;11780;13.904;100.620;2023-05-13T05:34:32;12.70;;;8.83;;
23222;SDS011;11780;13.904;100.620;2023-05-13T05:37:03;11.40;;;8.27;;
23222;SDS011;11780;13.904;100.620;2023-05-13T05:39:35;12.18;;;8.90;;
23222;SDS011;11780;13.904;100.620;2023-05-13T05:44:37;10.15;;;8.05;;
23222;SDS011;11780;13.904;100.620;2023-05-13T05:47:07;10.18;;;8.73;;
23222;SDS011;11780;13.904;100.620;2023-05-13T05:49:37;11.05;;;8.45;;
23222;SDS011;11780;13.904;100.620;2023-05-13T05:52:07;9.00;;;8.13;;
23222;SDS011;11780;13.904;100.620;2023-05-13T05:54:39;8.35;;;7.53;;
23222;SDS011;11780;13.904;100.620;2023-05-13T05:57:10;10.50;;;8.20;;
23222;SDS011;11780;13.904;100.620;2023-05-13T05:59:40;9.17;;;8.20;;
23222;SDS011;11780;13.904;100.620;2023-05-13T06:02:11;11.70;;;8.20;;
23222;SDS011;11780;13.904;100.620;2023-05-13T06:04:42;12.20;;;8.10;;
23222;SDS011;11780;13.904;100.620;2023-05-13T06:07:14;9.70;;;7.95;;
23222;SDS011;11780;13.904;100.620;2023-05-13T06:09:44;12.23;;;8.95;;
23222;SDS011;11780;13.904;100.620;2023-05-13T06:12:15;12.57;;;8.40;;
23222;SDS011;11780;13.904;100.620;2023-05-13T06:14:45;9.50;;;7.88;;
23222;SDS011;11780;13.904;100.620;2023-05-13T06:17:15;9.93;;;8.00;;
23222;SDS011;11780;13.904;100.620;2023-05-13T06:19:46;9.27;;;7.82;;
23222;SDS011;11780;13.904;100.620;2023-05-13T06:24:47;14.38;;;8.38;;
23222;SDS011;11780;13.904;100.620;2023-05-13T06:27:17;11.90;;;7.90;;
23222;SDS011;11780;13.904;100.620;2023-05-13T06:29:47;9.60;;;7.88;;
23222;SDS011;11780;13.904;100.620;2023-05-13T06:34:48;10.52;;;7.40;;
23222;SDS011;11780;13.904;100.620;2023-05-13T06:37:22;10.50;;;7.10;;
23222;SDS011;11780;13.904;100.620;2023-05-13T06:39:53;12.27;;;6.93;;
23222;SDS011;11780;13.904;100.620;2023-05-13T06:42:23;11.93;;;6.95;;
23222;SDS011;11780;13.904;100.620;2023-05-13T06:44:57;8.07;;;6.78;;
23222;SDS011;11780;13.904;100.620;2023-05-13T06:50:05;9.25;;;6.72;;
23222;SDS011;11780;13.904;100.620;2023-05-13T06:52:35;9.75;;;6.90;;
23222;SDS011;11780;13.904;100.620;2023-05-13T06:55:08;7.32;;;6.05;;
23222;SDS011;11780;13.904;100.620;2023-05-13T06:57:39;8.98;;;6.38;;
23222;SDS011;11780;13.904;100.620;2023-05-13T07:00:09;12.33;;;6.87;;
23222;SDS011;11780;13.904;100.620;2023-05-13T07:02:40;9.65;;;6.80;;
23222;SDS011;11780;13.904;100.620;2023-05-13T07:05:11;9.50;;;6.70;;
23222;SDS011;11780;13.904;100.620;2023-05-13T07:07:41;11.63;;;6.43;;
23222;SDS011;11780;13.904;100.620;2023-05-13T07:10:12;9.07;;;6.47;;
23222;SDS011;11780;13.904;100.620;2023-05-13T07:12:42;9.90;;;6.57;;
23222;SDS011;11780;13.904;100.620;2023-05-13T07:15:12;9.73;;;6.30;;
23222;SDS011;11780;13.904;100.620;2023-05-13T07:17:42;9.47;;;6.27;;
23222;SDS011;11780;13.904;100.620;2023-05-13T07:20:13;10.47;;;5.83;;
23222;SDS011;11780;13.904;100.620;2023-05-13T07:22:43;9.00;;;6.13;;
23222;SDS011;11780;13.904;100.620;2023-05-13T07:25:14;10.60;;;6.23;;
23222;SDS011;11780;13.904;100.620;2023-05-13T07:27:44;10.32;;;6.25;;
23222;SDS011;11780;13.904;100.620;2023-05-13T07:30:14;12.02;;;6.70;;
23222;SDS011;11780;13.904;100.620;2023-05-13T07:32:45;9.57;;;6.40;;
23222;SDS011;11780;13.904;100.620;2023-05-13T07:35:17;7.60;;;5.80;;
23222;SDS011;11780;13.904;100.620;2023-05-13T07:37:48;12.27;;;6.47;;
23222;SDS011;11780;13.904;100.620;2023-05-13T07:40:18;10.82;;;6.22;;
23222;SDS011;11780;13.904;100.620;2023-05-13T07:42:50;9.23;;;5.93;;
23222;SDS011;11780;13.904;100.620;2023-05-13T07:45:20;6.05;;;5.38;;
23222;SDS011;11780;13.904;100.620;2023-05-13T07:47:51;10.57;;;5.40;;
23222;SDS011;11780;13.904;100.620;2023-05-13T07:50:21;11.88;;;6.85;;
23222;SDS011;11780;13.904;100.620;2023-05-13T07:52:52;6.88;;;5.57;;
23222;SDS011;11780;13.904;100.620;2023-05-13T07:55:22;8.45;;;5.95;;
23222;SDS011;11780;13.904;100.620;2023-05-13T07:57:52;10.25;;;6.25;;
23222;SDS011;11780;13.904;100.620;2023-05-13T08:00:23;9.85;;;7.25;;
23222;SDS011;11780;13.904;100.620;2023-05-13T08:02:53;8.13;;;6.47;;
23222;SDS011;11780;13.904;100.620;2023-05-13T08:05:24;10.80;;;6.95;;
23222;SDS011;11780;13.904;100.620;2023-05-13T08:07:54;10.87;;;6.83;;
23222;SDS011;11780;13.904;100.620;2023-05-13T08:10:25;10.93;;;6.45;;
23222;SDS011;11780;13.904;100.620;2023-05-13T08:12:55;7.97;;;6.33;;
23222;SDS011;11780;13.904;100.620;2023-05-13T08:15:26;8.77;;;7.15;;
23222;SDS011;11780;13.904;100.620;2023-05-13T08:17:56;9.37;;;7.07;;
23222;SDS011;11780;13.904;100.620;2023-05-13T08:20:27;7.07;;;6.00;;
23222;SDS011;11780;13.904;100.620;2023-05-13T08:22:58;9.38;;;6.75;;
23222;SDS011;11780;13.904;100.620;2023-05-13T08:25:30;11.32;;;7.10;;
23222;SDS011;11780;13.904;100.620;2023-05-13T08:28:01;11.20;;;7.80;;
23222;SDS011;11780;13.904;100.620;2023-05-13T08:30:32;11.75;;;7.40;;
23222;SDS011;11780;13.904;100.620;2023-05-13T08:33:02;11.03;;;7.30;;
23222;SDS011;11780;13.904;100.620;2023-05-13T08:35:34;11.25;;;6.43;;
23222;SDS011;11780;13.904;100.620;2023-05-13T08:38:05;10.73;;;7.70;;
23222;SDS011;11780;13.904;100.620;2023-05-13T08:40:35;8.83;;;6.60;;
23222;SDS011;11780;13.904;100.620;2023-05-13T08:43:06;8.57;;;7.50;;
23222;SDS011;11780;13.904;100.620;2023-05-13T08:45:40;9.27;;;7.10;;
23222;SDS011;11780;13.904;100.620;2023-05-13T08:48:14;12.70;;;7.28;;
23222;SDS011;11780;13.904;100.620;2023-05-13T08:50:45;11.25;;;7.25;;
23222;SDS011;11780;13.904;100.620;2023-05-13T08:53:16;8.77;;;7.05;;
23222;SDS011;11780;13.904;100.620;2023-05-13T08:55:47;8.25;;;7.18;;
23222;SDS011;11780;13.904;100.620;2023-05-13T08:58:18;8.52;;;6.93;;
23222;SDS011;11780;13.904;100.620;2023-05-13T09:00:49;8.53;;;7.30;;
23222;SDS011;11780;13.904;100.620;2023-05-13T09:03:22;7.93;;;7.10;;
23222;SDS011;11780;13.904;100.620;2023-05-13T09:05:58;8.02;;;7.22;;
23222;SDS011;11780;13.904;100.620;2023-05-13T09:08:32;11.52;;;7.28;;
23222;SDS011;11780;13.904;100.620;2023-05-13T09:11:02;11.47;;;7.57;;
23222;SDS011;11780;13.904;100.620;2023-05-13T09:13:33;9.35;;;6.70;;
23222;SDS011;11780;13.904;100.620;2023-05-13T09:16:04;10.32;;;6.70;;
23222;SDS011;11780;13.904;100.620;2023-05-13T09:18:35;11.15;;;6.70;;
23222;SDS011;11780;13.904;100.620;2023-05-13T09:24:11;8.05;;;6.68;;
23222;SDS011;11780;13.904;100.620;2023-05-13T09:26:52;10.25;;;6.47;;
23222;SDS011;11780;13.904;100.620;2023-05-13T09:29:23;11.50;;;6.47;;
23222;SDS011;11780;13.904;100.620;2023-05-13T09:32:05;9.75;;;5.88;;
23222;SDS011;11780;13.904;100.620;2023-05-13T09:34:36;9.77;;;6.25;;
23222;SDS011;11780;13.904;100.620;2023-05-13T09:37:07;7.82;;;5.78;;
23222;SDS011;11780;13.904;100.620;2023-05-13T09:42:15;9.18;;;5.93;;
23222;SDS011;11780;13.904;100.620;2023-05-13T09:44:46;9.13;;;6.30;;
23222;SDS011;11780;13.904;100.620;2023-05-13T09:47:18;7.55;;;5.65;;
23222;SDS011;11780;13.904;100.620;2023-05-13T09:49:53;8.32;;;6.38;;
23222;SDS011;11780;13.904;100.620;2023-05-13T09:52:25;8.52;;;6.03;;
23222;SDS011;11780;13.904;100.620;2023-05-13T09:54:58;7.68;;;5.00;;
23222;SDS011;11780;13.904;100.620;2023-05-13T09:57:29;7.32;;;5.40;;
23222;SDS011;11780;13.904;100.620;2023-05-13T10:00:01;8.27;;;5.20;;
23222;SDS011;11780;13.904;100.620;2023-05-13T10:02:58;9.25;;;5.15;;
23222;SDS011;11780;13.904;100.620;2023-05-13T10:05:39;8.98;;;5.50;;
23222;SDS011;11780;13.904;100.620;2023-05-13T10:08:11;9.10;;;5.18;;
23222;SDS011;11780;13.904;100.620;2023-05-13T10:10:43;7.05;;;4.82;;
23222;SDS011;11780;13.904;100.620;2023-05-13T10:13:15;6.55;;;5.18;;
23222;SDS011;11780;13.904;100.620;2023-05-13T10:15:48;8.98;;;5.82;;
23222;SDS011;11780;13.904;100.620;2023-05-13T10:18:23;7.88;;;5.80;;
23222;SDS011;11780;13.904;100.620;2023-05-13T10:20:54;7.18;;;5.28;;
23222;SDS011;11780;13.904;100.620;2023-05-13T10:23:26;7.03;;;4.90;;
23222;SDS011;11780;13.904;100.620;2023-05-13T10:25:57;7.63;;;4.97;;
23222;SDS011;11780;13.904;100.620;2023-05-13T10:28:28;5.27;;;4.63;;
23222;SDS011;11780;13.904;100.620;2023-05-13T10:31:00;11.13;;;5.18;;
23222;SDS011;11780;13.904;100.620;2023-05-13T10:33:31;6.55;;;4.75;;
23222;SDS011;11780;13.904;100.620;2023-05-13T10:44:09;8.88;;;4.82;;
23222;SDS011;11780;13.904;100.620;2023-05-13T10:46:41;5.97;;;3.87;;
23222;SDS011;11780;13.904;100.620;2023-05-13T10:49:13;6.15;;;4.53;;
23222;SDS011;11780;13.904;100.620;2023-05-13T10:51:46;7.78;;;4.40;;
23222;SDS011;11780;13.904;100.620;2023-05-13T10:54:18;8.73;;;5.25;;
23222;SDS011;11780;13.904;100.620;2023-05-13T10:56:56;7.15;;;4.55;;
23222;SDS011;11780;13.904;100.620;2023-05-13T10:59:27;7.38;;;4.45;;
23222;SDS011;11780;13.904;100.620;2023-05-13T11:02:02;5.93;;;4.00;;
23222;SDS011;11780;13.904;100.620;2023-05-13T11:04:58;10.45;;;4.30;;
23222;SDS011;11780;13.904;100.620;2023-05-13T11:07:29;7.38;;;3.90;;
23222;SDS011;11780;13.904;100.620;2023-05-13T11:10:00;10.03;;;4.23;;
23222;SDS011;11780;13.904;100.620;2023-05-13T11:12:30;11.23;;;4.68;;
23222;SDS011;11780;13.904;100.620;2023-05-13T11:15:01;8.10;;;3.90;;
23222;SDS011;11780;13.904;100.620;2023-05-13T11:17:52;8.40;;;4.30;;
23222;SDS011;11780;13.904;100.620;2023-05-13T11:20:23;10.20;;;4.18;;
23222;SDS011;11780;13.904;100.620;2023-05-13T11:25:25;10.45;;;4.30;;
23222;SDS011;11780;13.904;100.620;2023-05-13T11:27:56;9.70;;;4.03;;
23222;SDS011;11780;13.904;100.620;2023-05-13T11:30:26;11.45;;;3.85;;
23222;SDS011;11780;13.904;100.620;2023-05-13T11:32:57;12.20;;;4.70;;
23222;SDS011;11780;13.904;100.620;2023-05-13T11:35:31;11.82;;;4.10;;
23222;SDS011;11780;13.904;100.620;2023-05-13T11:38:02;10.10;;;3.65;;
23222;SDS011;11780;13.904;100.620;2023-05-13T11:40:34;11.90;;;3.83;;
23222;SDS011;11780;13.904;100.620;2023-05-13T11:43:06;9.07;;;3.92;;
23222;SDS011;11780;13.904;100.620;2023-05-13T11:45:38;7.63;;;3.58;;
23222;SDS011;11780;13.904;100.620;2023-05-13T11:50:51;7.35;;;3.20;;
23222;SDS011;11780;13.904;100.620;2023-05-13T11:53:21;9.77;;;3.60;;
23222;SDS011;11780;13.904;100.620;2023-05-13T11:55:52;13.90;;;3.80;;
23222;SDS011;11780;13.904;100.620;2023-05-13T11:58:23;9.60;;;3.40;;
23222;SDS011;11780;13.904;100.620;2023-05-13T12:00:54;10.75;;;3.28;;
23222;SDS011;11780;13.904;100.620;2023-05-13T12:03:26;11.30;;;3.40;;
23222;SDS011;11780;13.904;100.620;2023-05-13T12:06:02;9.60;;;3.38;;
23222;SDS011;11780;13.904;100.620;2023-05-13T12:08:34;7.75;;;3.40;;
23222;SDS011;11780;13.904;100.620;2023-05-13T12:11:11;9.30;;;3.70;;
23222;SDS011;11780;13.904;100.620;2023-05-13T12:16:12;9.95;;;3.67;;
23222;SDS011;11780;13.904;100.620;2023-05-13T12:18:52;11.37;;;3.30;;
23222;SDS011;11780;13.904;100.620;2023-05-13T12:21:27;8.18;;;3.55;;
23222;SDS011;11780;13.904;100.620;2023-05-13T12:24:00;10.48;;;3.60;;
23222;SDS011;11780;13.904;100.620;2023-05-13T12:26:31;10.23;;;3.43;;
23222;SDS011;11780;13.904;100.620;2023-05-13T12:29:01;9.57;;;3.88;;
23222;SDS011;11780;13.904;100.620;2023-05-13T12:31:32;7.57;;;2.93;;
23222;SDS011;11780;13.904;100.620;2023-05-13T12:34:02;7.70;;;3.13;;
23222;SDS011;11780;13.904;100.620;2023-05-13T12:36:37;7.55;;;2.90;;
23222;SDS011;11780;13.904;100.620;2023-05-13T12:39:09;8.20;;;3.47;;
23222;SDS011;11780;13.904;100.620;2023-05-13T12:41:40;9.13;;;3.15;;
23222;SDS011;11780;13.904;100.620;2023-05-13T12:46:50;9.85;;;3.25;;
23222;SDS011;11780;13.904;100.620;2023-05-13T12:49:22;10.07;;;3.50;;
23222;SDS011;11780;13.904;100.620;2023-05-13T12:51:52;9.30;;;3.42;;
23222;SDS011;11780;13.904;100.620;2023-05-13T12:54:24;15.30;;;4.35;;
23222;SDS011;11780;13.904;100.620;2023-05-13T12:56:55;11.38;;;3.67;;
23222;SDS011;11780;13.904;100.620;2023-05-13T12:59:25;9.90;;;4.10;;
23222;SDS011;11780;13.904;100.620;2023-05-13T13:01:57;11.65;;;3.78;;
23222;SDS011;11780;13.904;100.620;2023-05-13T13:04:28;8.67;;;4.40;;
23222;SDS011;11780;13.904;100.620;2023-05-13T13:06:59;9.27;;;4.00;;
23222;SDS011;11780;13.904;100.620;2023-05-13T13:09:29;11.80;;;4.60;;
23222;SDS011;11780;13.904;100.620;2023-05-13T13:11:59;9.13;;;4.45;;
23222;SDS011;11780;13.904;100.620;2023-05-13T13:14:30;7.07;;;4.25;;
23222;SDS011;11780;13.904;100.620;2023-05-13T13:17:00;8.80;;;3.73;;
23222;SDS011;11780;13.904;100.620;2023-05-13T13:19:30;5.70;;;3.42;;
23222;SDS011;11780;13.904;100.620;2023-05-13T13:22:01;9.18;;;3.92;;
23222;SDS011;11780;13.904;100.620;2023-05-13T13:24:31;6.00;;;3.47;;
23222;SDS011;11780;13.904;100.620;2023-05-13T13:27:01;8.52;;;3.10;;
23222;SDS011;11780;13.904;100.620;2023-05-13T13:29:32;8.70;;;3.40;;
23222;SDS011;11780;13.904;100.620;2023-05-13T13:32:03;8.07;;;3.92;;
23222;SDS011;11780;13.904;100.620;2023-05-13T13:34:34;7.55;;;3.83;;
23222;SDS011;11780;13.904;100.620;2023-05-13T13:39:35;6.78;;;3.40;;
23222;SDS011;11780;13.904;100.620;2023-05-13T13:42:05;6.75;;;3.60;;
23222;SDS011;11780;13.904;100.620;2023-05-13T13:44:36;10.45;;;3.70;;
23222;SDS011;11780;13.904;100.620;2023-05-13T13:47:09;9.68;;;3.55;;
23222;SDS011;11780;13.904;100.620;2023-05-13T13:49:39;9.73;;;4.23;;
23222;SDS011;11780;13.904;100.620;2023-05-13T13:52:10;8.55;;;3.92;;
23222;SDS011;11780;13.904;100.620;2023-05-13T13:54:41;7.28;;;3.85;;
23222;SDS011;11780;13.904;100.620;2023-05-13T14:05:18;9.02;;;3.72;;
23222;SDS011;11780;13.904;100.620;2023-05-13T14:07:49;14.52;;;4.03;;
23222;SDS011;11780;13.904;100.620;2023-05-13T14:10:22;9.10;;;3.65;;
23222;SDS011;11780;13.904;100.620;2023-05-13T14:12:53;6.45;;;3.45;;
23222;SDS011;11780;13.904;100.620;2023-05-13T14:15:25;7.53;;;3.53;;
23222;SDS011;11780;13.904;100.620;2023-05-13T14:17:58;9.85;;;3.85;;
23222;SDS011;11780;13.904;100.620;2023-05-13T14:23:00;9.32;;;3.53;;
23222;SDS011;11780;13.904;100.620;2023-05-13T14:25:31;8.10;;;3.40;;
23222;SDS011;11780;13.904;100.620;2023-05-13T14:28:04;10.02;;;3.70;;
23222;SDS011;11780;13.904;100.620;2023-05-13T14:30:35;12.05;;;3.90;;
23222;SDS011;11780;13.904;100.620;2023-05-13T14:33:05;12.60;;;3.95;;
23222;SDS011;11780;13.904;100.620;2023-05-13T14:35:36;10.30;;;4.00;;
23222;SDS011;11780;13.904;100.620;2023-05-13T14:38:07;6.80;;;3.27;;
23222;SDS011;11780;13.904;100.620;2023-05-13T14:40:38;11.20;;;4.38;;
23222;SDS011;11780;13.904;100.620;2023-05-13T14:43:09;10.98;;;4.07;;
23222;SDS011;11780;13.904;100.620;2023-05-13T14:45:40;9.85;;;4.32;;
23222;SDS011;11780;13.904;100.620;2023-05-13T14:48:11;11.48;;;5.78;;
23222;SDS011;11780;13.904;100.620;2023-05-13T14:50:42;11.83;;;6.60;;
23222;SDS011;11780;13.904;100.620;2023-05-13T14:53:14;15.50;;;7.38;;
23222;SDS011;11780;13.904;100.620;2023-05-13T14:55:45;10.88;;;5.35;;
23222;SDS011;11780;13.904;100.620;2023-05-13T14:58:17;10.68;;;4.97;;
23222;SDS011;11780;13.904;100.620;2023-05-13T15:03:19;12.40;;;4.73;;
23222;SDS011;11780;13.904;100.620;2023-05-13T15:05:50;8.88;;;4.55;;
23222;SDS011;11780;13.904;100.620;2023-05-13T15:08:23;7.72;;;3.80;;
23222;SDS011;11780;13.904;100.620;2023-05-13T15:10:54;8.55;;;4.32;;
23222;SDS011;11780;13.904;100.620;2023-05-13T15:13:25;10.27;;;3.73;;
23222;SDS011;11780;13.904;100.620;2023-05-13T15:15:57;8.70;;;4.15;;
23222;SDS011;11780;13.904;100.620;2023-05-13T15:18:29;6.95;;;4.03;;
23222;SDS011;11780;13.904;100.620;2023-05-13T15:21:00;9.48;;;4.05;;
23222;SDS011;11780;13.904;100.620;2023-05-13T15:23:31;6.53;;;3.77;;
23222;SDS011;11780;13.904;100.620;2023-05-13T15:26:01;9.27;;;3.57;;
23222;SDS011;11780;13.904;100.620;2023-05-13T15:31:02;5.45;;;3.70;;
23222;SDS011;11780;13.904;100.620;2023-05-13T15:33:34;8.55;;;4.00;;
23222;SDS011;11780;13.904;100.620;2023-05-13T15:36:05;10.63;;;3.80;;
23222;SDS011;11780;13.904;100.620;2023-05-13T15:38:38;12.82;;;4.45;;
23222;SDS011;11780;13.904;100.620;2023-05-13T15:41:08;9.57;;;4.07;;